Terminal Aerodrome Forecast
Issued by NWS Twin Cities, MN

Home | Current Version | Previous Version | Text Only | Print | Product List | Glossary Off
Versions: 1 2 3 4 5 6 7 8 9 10 11 12 13

000
FTUS43 KMPX 281700
TAFSTC
TAF
KSTC 281720Z 2818/2918 32007KT P6SM SCT045 BKN070
     FM282000 33008KT P6SM SCT050 SCT080
     FM290100 32002KT P6SM FEW050
     FM291500 31007KT P6SM SCT040=

USA.gov is the U.S. government's official web portal to all federal, state and local government web resources and services.